Time;durP1;ratioP1;P1;durP2;ratioP2;P2;SDS_P1;SDS_P2;PMS_P1;PMS_P2;Temp;Humidity;BMP_temperature;BMP_pressure;BME280_temperature;BME280_humidity;BME280_pressure;Samples;Min_cycle;Max_cycle;Signal;HPM_P1;HPM_P2
2022/04/12 00:01:36;;;;;;;41.65;20.27;;;6.80;99.90;;;;;;5046315;28;20494;-76
2022/04/12 00:04:03;;;;;;;40.92;20.25;;;6.80;99.90;;;;;;5047630;28;20033;-76
2022/04/12 00:06:29;;;;;;;38.28;19.80;;;6.70;99.90;;;;;;5048560;28;20041;-79
2022/04/12 00:08:55;;;;;;;40.28;19.17;;;6.70;99.90;;;;;;5048645;28;20033;-76
2022/04/12 00:11:21;;;;;;;37.30;19.60;;;6.70;99.90;;;;;;5030852;28;20028;-81
2022/04/12 00:13:46;;;;;;;34.80;18.73;;;6.60;99.90;;;;;;5049519;28;20067;-78
2022/04/12 00:16:12;;;;;;;41.33;20.17;;;6.60;99.90;;;;;;5048587;28;20593;-80
2022/04/12 00:21:21;;;;;;;39.15;19.20;;;6.50;99.90;;;;;;5048108;28;20044;-77
2022/04/12 00:23:47;;;;;;;35.70;19.73;;;6.50;99.90;;;;;;5053323;28;20052;-77
2022/04/12 00:26:13;;;;;;;38.78;19.60;;;6.40;99.90;;;;;;5031042;28;20182;-76
2022/04/12 00:28:40;;;;;;;36.88;19.75;;;6.40;99.90;;;;;;5064940;28;20025;-76
2022/04/12 00:31:07;;;;;;;35.72;19.58;;;6.30;99.90;;;;;;5023958;28;20422;-78
2022/04/12 00:33:32;;;;;;;38.83;19.73;;;6.30;99.90;;;;;;5048795;28;20045;-80
2022/04/12 00:36:00;;;;;;;39.08;19.15;;;6.20;99.90;;;;;;5068046;28;20036;-75
2022/04/12 00:38:27;;;;;;;38.28;19.83;;;6.20;99.90;;;;;;5052112;28;20040;-77
2022/04/12 00:40:54;;;;;;;35.35;19.05;;;6.10;99.90;;;;;;5052296;28;20135;-78
2022/04/12 00:43:20;;;;;;;35.42;19.27;;;6.00;99.90;;;;;;5052375;28;20515;-78
2022/04/12 00:45:47;;;;;;;38.63;19.88;;;6.00;99.90;;;;;;5043357;28;20418;-78
2022/04/12 00:48:13;;;;;;;40.33;19.63;;;5.90;99.90;;;;;;5053612;28;20487;-80
2022/04/12 00:50:40;;;;;;;34.88;19.00;;;5.90;99.90;;;;;;5036193;28;20120;-77
2022/04/12 00:53:07;;;;;;;46.75;20.98;;;5.90;99.90;;;;;;5032464;28;20041;-77
2022/04/12 00:55:34;;;;;;;38.47;19.95;;;5.80;99.90;;;;;;5050131;28;20067;-78
2022/04/12 00:58:05;;;;;;;38.35;19.30;;;5.80;99.90;;;;;;5066704;28;20098;-77
2022/04/12 01:00:31;;;;;;;39.10;20.27;;;5.70;99.90;;;;;;5059960;28;20110;-79
2022/04/12 01:02:57;;;;;;;35.92;19.33;;;5.70;99.90;;;;;;5051173;28;20040;-81
2022/04/12 01:05:23;;;;;;;37.70;20.00;;;5.70;99.90;;;;;;5051723;28;20048;-79
2022/04/12 01:07:49;;;;;;;42.67;19.67;;;5.60;99.90;;;;;;5034660;28;20052;-76
2022/04/12 01:10:15;;;;;;;41.78;18.98;;;5.60;99.90;;;;;;5067403;28;20037;-78
2022/04/12 01:12:41;;;;;;;41.60;18.92;;;5.50;99.90;;;;;;5056848;28;20498;-77
2022/04/12 01:15:18;;;;;;;39.22;19.52;;;5.50;99.90;;;;;;5072766;28;20056;-75
2022/04/12 01:17:45;;;;;;;35.45;18.38;;;5.40;99.90;;;;;;5048532;28;20381;-77
2022/04/12 01:20:15;;;;;;;34.83;19.08;;;5.40;99.90;;;;;;5041030;28;20077;-76
2022/04/12 01:23:12;;;;;;;40.15;19.35;;;5.30;99.90;;;;;;5046244;28;20621;-78
2022/04/12 01:25:38;;;;;;;35.70;19.02;;;5.30;99.90;;;;;;5049018;28;20403;-78
2022/04/12 01:28:04;;;;;;;37.60;19.33;;;5.30;99.90;;;;;;5050871;28;20041;-76
2022/04/12 01:30:30;;;;;;;39.30;18.95;;;5.20;99.90;;;;;;5051520;28;20047;-77
2022/04/12 01:32:55;;;;;;;37.20;18.35;;;5.20;99.90;;;;;;5049968;28;20041;-76
2022/04/12 01:35:21;;;;;;;33.75;18.13;;;5.10;99.90;;;;;;5047106;28;20040;-77
2022/04/12 01:37:47;;;;;;;35.53;18.60;;;5.10;99.90;;;;;;5049642;28;20033;-77
2022/04/12 01:40:12;;;;;;;40.95;19.80;;;5.10;99.90;;;;;;5050642;28;20032;-76
2022/04/12 01:42:38;;;;;;;33.90;18.05;;;5.00;99.90;;;;;;5050570;28;20542;-78
2022/04/12 01:45:05;;;;;;;35.85;17.33;;;5.10;99.90;;;;;;5050482;28;20506;-75
2022/04/12 01:47:31;;;;;;;37.40;18.23;;;5.10;99.90;;;;;;5050038;28;20038;-76
2022/04/12 01:49:56;;;;;;;37.72;19.13;;;5.00;99.90;;;;;;5051160;28;20043;-76
2022/04/12 01:52:22;;;;;;;38.38;18.77;;;5.00;99.90;;;;;;5051270;28;20664;-80
2022/04/12 01:54:48;;;;;;;40.35;18.58;;;5.00;99.90;;;;;;5042664;28;20048;-77
2022/04/12 01:57:14;;;;;;;37.28;18.20;;;5.00;99.90;;;;;;5048201;28;20087;-78
2022/04/12 01:59:40;;;;;;;33.80;17.20;;;5.00;99.90;;;;;;5050022;28;20096;-77
2022/04/12 02:02:06;;;;;;;34.97;16.80;;;5.00;99.90;;;;;;5048620;28;20043;-75
2022/04/12 02:04:31;;;;;;;35.45;17.77;;;4.90;99.90;;;;;;5052682;28;20049;-77
2022/04/12 02:06:57;;;;;;;33.90;17.92;;;4.90;99.90;;;;;;5048657;28;20052;-78
2022/04/12 02:09:22;;;;;;;33.47;18.48;;;5.00;99.90;;;;;;5044309;28;20462;-77
2022/04/12 02:11:48;;;;;;;35.38;17.20;;;4.90;99.90;;;;;;5050474;28;20032;-77
2022/04/12 02:14:13;;;;;;;33.42;18.27;;;4.90;99.90;;;;;;5045736;28;20479;-76
2022/04/12 02:16:39;;;;;;;38.42;17.70;;;4.90;99.90;;;;;;5049920;28;20094;-75
2022/04/12 02:19:04;;;;;;;37.03;18.30;;;4.90;99.90;;;;;;5048476;28;20118;-78
2022/04/12 02:21:30;;;;;;;34.63;17.70;;;4.90;99.90;;;;;;5052499;28;20124;-79
2022/04/12 02:23:55;;;;;;;34.63;18.33;;;4.90;99.90;;;;;;5065590;28;20037;-78
2022/04/12 02:26:21;;;;;;;37.35;18.30;;;4.90;99.90;;;;;;5044918;28;20497;-77
2022/04/12 02:28:46;;;;;;;37.72;18.60;;;4.90;99.90;;;;;;5038866;28;20029;-78
2022/04/12 02:31:12;;;;;;;37.30;18.98;;;4.90;99.90;;;;;;5038589;28;20033;-76
2022/04/12 02:33:37;;;;;;;35.83;17.58;;;4.90;99.90;;;;;;5049276;28;20514;-78
2022/04/12 02:36:03;;;;;;;35.72;17.90;;;4.80;99.90;;;;;;5049793;28;20052;-77
2022/04/12 02:38:28;;;;;;;34.72;17.65;;;4.80;99.90;;;;;;5048759;28;20156;-77
2022/04/12 02:40:54;;;;;;;34.15;18.13;;;4.80;99.90;;;;;;5044100;28;20400;-77
2022/04/12 02:43:20;;;;;;;33.83;16.80;;;4.80;99.90;;;;;;5046926;28;20475;-76
2022/04/12 02:45:46;;;;;;;30.88;16.13;;;4.80;99.90;;;;;;5029305;28;20044;-77
2022/04/12 02:48:12;;;;;;;32.45;15.77;;;4.70;99.90;;;;;;5048076;28;20040;-75
2022/04/12 02:50:38;;;;;;;35.35;16.50;;;4.80;99.90;;;;;;5025432;28;20037;-76
2022/04/12 02:53:04;;;;;;;32.20;16.63;;;4.80;99.90;;;;;;5043446;28;20044;-77
2022/04/12 02:55:29;;;;;;;32.97;16.73;;;4.80;99.90;;;;;;5037839;28;20455;-75
2022/04/12 02:57:55;;;;;;;30.02;16.17;;;4.80;99.90;;;;;;5045278;28;20045;-75
2022/04/12 03:00:21;;;;;;;34.10;17.35;;;4.80;99.90;;;;;;5036341;28;20060;-77
2022/04/12 03:02:46;;;;;;;33.58;17.00;;;4.80;99.90;;;;;;5064545;28;20090;-78
2022/04/12 03:05:12;;;;;;;35.30;17.17;;;4.80;99.90;;;;;;5045138;28;20098;-76
2022/04/12 03:07:37;;;;;;;32.60;17.00;;;4.80;99.90;;;;;;5052446;28;20038;-78
2022/04/12 03:10:03;;;;;;;37.72;18.40;;;4.80;99.90;;;;;;5048133;28;20120;-77
2022/04/12 03:12:29;;;;;;;34.10;16.60;;;4.80;99.90;;;;;;5049314;28;20051;-76
2022/04/12 03:14:54;;;;;;;38.53;18.20;;;4.80;99.90;;;;;;5049137;28;20079;-77
2022/04/12 03:17:20;;;;;;;32.88;16.98;;;4.80;99.90;;;;;;5048415;28;20388;-76
2022/04/12 03:19:46;;;;;;;33.70;17.40;;;4.80;99.90;;;;;;5048189;28;20037;-77
2022/04/12 03:22:12;;;;;;;35.58;16.98;;;4.90;99.90;;;;;;5047396;28;20090;-77
2022/04/12 03:24:38;;;;;;;31.10;16.83;;;4.90;99.90;;;;;;5043170;28;20056;-76
2022/04/12 03:27:04;;;;;;;33.20;16.88;;;5.00;99.90;;;;;;5048772;28;20060;-74
2022/04/12 03:29:30;;;;;;;34.40;17.10;;;4.90;99.90;;;;;;5047509;28;20044;-77
2022/04/12 03:31:56;;;;;;;29.75;15.88;;;5.00;99.90;;;;;;5048788;28;20035;-77
2022/04/12 03:34:21;;;;;;;35.58;16.38;;;5.00;99.90;;;;;;5046896;28;20523;-78
2022/04/12 03:36:48;;;;;;;32.90;16.50;;;5.00;99.90;;;;;;5048940;28;20513;-77
2022/04/12 03:39:21;;;;;;;29.33;15.63;;;5.10;99.90;;;;;;5051148;28;20041;-80
2022/04/12 03:41:47;;;;;;;36.15;16.15;;;5.10;99.90;;;;;;5048706;28;20032;-75
2022/04/12 03:44:14;;;;;;;30.25;15.90;;;5.10;99.90;;;;;;5047562;28;20081;-78
2022/04/12 03:46:40;;;;;;;31.95;16.15;;;5.10;99.90;;;;;;5064632;28;20052;-77
2022/04/12 03:49:06;;;;;;;30.17;16.65;;;5.10;99.90;;;;;;5046100;28;20442;-79
2022/04/12 03:51:31;;;;;;;35.63;16.35;;;5.00;99.90;;;;;;5063501;28;20047;-78
2022/04/12 03:53:57;;;;;;;31.92;16.83;;;5.00;99.90;;;;;;5062588;28;20501;-81
2022/04/12 03:56:23;;;;;;;36.05;16.50;;;5.00;99.90;;;;;;5044608;28;20048;-79
2022/04/12 03:58:48;;;;;;;31.48;16.88;;;4.90;99.90;;;;;;5035710;28;20045;-76
2022/04/12 04:01:14;;;;;;;33.10;16.52;;;4.90;99.90;;;;;;5060820;28;20064;-76
2022/04/12 04:03:40;;;;;;;32.70;16.60;;;4.90;99.90;;;;;;5069822;28;20038;-76
2022/04/12 04:06:05;;;;;;;34.80;17.40;;;4.80;99.90;;;;;;5059326;28;20095;-76
2022/04/12 04:08:31;;;;;;;32.10;15.70;;;4.80;99.90;;;;;;5047180;28;20049;-75
2022/04/12 04:10:57;;;;;;;33.40;16.70;;;4.80;99.90;;;;;;5047114;28;20045;-76
2022/04/12 04:13:24;;;;;;;35.80;17.70;;;4.80;99.90;;;;;;5044696;28;20040;-80
2022/04/12 04:15:50;;;;;;;38.80;17.10;;;4.80;99.90;;;;;;5032877;28;20033;-77
2022/04/12 04:18:16;;;;;;;36.92;17.10;;;4.80;99.90;;;;;;5050196;28;20136;-78
2022/04/12 04:20:42;;;;;;;35.38;17.55;;;4.80;99.90;;;;;;5048781;28;20123;-79
2022/04/12 04:23:09;;;;;;;33.55;16.63;;;4.80;99.90;;;;;;5066985;28;20045;-79
2022/04/12 04:25:34;;;;;;;33.38;16.73;;;4.80;99.90;;;;;;5049991;28;20037;-77
2022/04/12 04:28:02;;;;;;;34.05;17.17;;;4.80;99.90;;;;;;5044516;28;20044;-76
2022/04/12 04:30:30;;;;;;;36.00;17.30;;;4.70;99.90;;;;;;5052218;28;20123;-78
2022/04/12 04:32:55;;;;;;;35.45;16.92;;;4.70;99.90;;;;;;5050910;28;20041;-78
2022/04/12 04:35:21;;;;;;;41.83;17.90;;;4.70;99.90;;;;;;5047886;28;20044;-79
2022/04/12 04:37:48;;;;;;;33.13;17.33;;;4.70;99.90;;;;;;5032433;28;20044;-78
2022/04/12 04:40:19;;;;;;;35.35;17.15;;;4.70;99.90;;;;;;5028776;28;20041;-76
2022/04/12 04:42:45;;;;;;;36.80;16.98;;;4.70;99.90;;;;;;5045060;28;20271;-76
2022/04/12 04:45:12;;;;;;;34.53;17.13;;;4.70;99.90;;;;;;5050394;28;20194;-77
2022/04/12 04:47:58;;;;;;;35.35;16.35;;;4.60;99.90;;;;;;5057131;28;20064;-75
2022/04/12 04:50:31;;;;;;;37.85;17.40;;;4.60;99.90;;;;;;5050757;28;20044;-76
2022/04/12 04:53:02;;;;;;;36.22;16.45;;;4.60;99.90;;;;;;5055651;28;20034;-77
2022/04/12 04:55:29;;;;;;;38.90;18.15;;;4.60;99.90;;;;;;5047601;28;20064;-79
2022/04/12 04:57:56;;;;;;;39.05;18.02;;;4.60;99.90;;;;;;5069518;28;20471;-78
2022/04/12 05:00:25;;;;;;;36.70;18.48;;;4.60;99.90;;;;;;5059749;28;20029;-75
2022/04/12 05:02:53;;;;;;;32.50;16.73;;;4.60;99.90;;;;;;5032520;28;20396;-80
2022/04/12 05:05:20;;;;;;;37.38;18.33;;;4.60;99.90;;;;;;5047559;28;20037;-77
2022/04/12 05:07:47;;;;;;;36.88;16.90;;;4.70;99.90;;;;;;5030972;28;20044;-74
2022/04/12 05:10:15;;;;;;;34.35;17.45;;;4.70;99.90;;;;;;5048814;28;20029;-78
2022/04/12 05:12:40;;;;;;;38.67;17.90;;;4.70;99.90;;;;;;5048146;28;20086;-76
2022/04/12 05:15:07;;;;;;;36.72;17.13;;;4.80;99.90;;;;;;5051675;28;20484;-76
2022/04/12 05:17:32;;;;;;;38.15;17.98;;;4.80;99.90;;;;;;5052382;28;20080;-77
2022/04/12 05:19:58;;;;;;;37.83;17.65;;;4.90;99.90;;;;;;5033717;28;20460;-76
2022/04/12 05:22:25;;;;;;;34.67;16.98;;;5.00;99.90;;;;;;5049921;28;20040;-80
2022/04/12 05:24:50;;;;;;;33.55;17.10;;;5.10;99.90;;;;;;5051815;28;20041;-78
2022/04/12 05:27:16;;;;;;;36.63;17.63;;;5.20;99.90;;;;;;5050896;28;20044;-79
2022/04/12 05:29:43;;;;;;;34.95;16.92;;;5.30;99.90;;;;;;5052456;28;20041;-77
2022/04/12 05:32:09;;;;;;;37.30;17.23;;;5.40;99.90;;;;;;5048632;28;20530;-79
2022/04/12 05:34:42;;;;;;;32.95;17.50;;;5.50;99.90;;;;;;5050747;28;20068;-82
2022/04/12 05:37:08;;;;;;;36.20;17.05;;;5.50;99.90;;;;;;5051205;28;20048;-79
2022/04/12 05:39:34;;;;;;;37.15;16.83;;;5.60;99.90;;;;;;5047486;28;20472;-80
2022/04/12 05:42:00;;;;;;;35.90;17.35;;;5.80;99.90;;;;;;5049362;28;20060;-80
2022/04/12 05:44:27;;;;;;;37.42;17.58;;;5.90;99.90;;;;;;5039651;28;20082;-78
2022/04/12 05:46:53;;;;;;;34.58;17.00;;;6.00;99.90;;;;;;5052354;28;20403;-80
2022/04/12 05:49:18;;;;;;;33.30;17.38;;;6.10;99.90;;;;;;5025228;28;20029;-79
2022/04/12 05:51:44;;;;;;;35.85;17.92;;;6.20;99.90;;;;;;5048296;28;20036;-77
2022/04/12 05:54:09;;;;;;;34.72;16.63;;;6.30;99.90;;;;;;5047240;28;20033;-77
2022/04/12 05:56:35;;;;;;;38.80;16.52;;;6.40;99.90;;;;;;5051375;28;20041;-81
2022/04/12 05:59:00;;;;;;;34.22;16.92;;;6.40;99.90;;;;;;5051449;28;20120;-78
2022/04/12 06:01:26;;;;;;;32.47;16.30;;;6.50;99.90;;;;;;5051486;28;20041;-78
2022/04/12 06:03:51;;;;;;;35.78;17.67;;;6.60;99.90;;;;;;5051803;28;20059;-79
2022/04/12 06:06:17;;;;;;;38.22;17.00;;;6.70;99.90;;;;;;5052516;28;20044;-79
2022/04/12 06:08:42;;;;;;;34.97;16.92;;;6.70;99.90;;;;;;5032462;28;20460;-76
2022/04/12 06:11:08;;;;;;;36.00;17.83;;;6.80;99.90;;;;;;5039255;28;20124;-79
2022/04/12 06:13:34;;;;;;;38.00;17.83;;;6.80;99.90;;;;;;5025299;28;20123;-79
2022/04/12 06:15:59;;;;;;;35.03;17.05;;;6.90;99.90;;;;;;5036513;28;20045;-80
2022/04/12 06:18:25;;;;;;;34.03;17.05;;;7.00;99.90;;;;;;5052182;28;20040;-80
2022/04/12 06:20:50;;;;;;;41.17;17.27;;;7.10;99.90;;;;;;5051484;28;20095;-81
2022/04/12 06:23:17;;;;;;;34.80;17.23;;;7.20;99.90;;;;;;5051775;28;20393;-79
2022/04/12 06:25:43;;;;;;;36.10;17.25;;;7.20;99.90;;;;;;5049525;28;20033;-81
2022/04/12 06:28:09;;;;;;;33.50;16.90;;;7.30;99.90;;;;;;5049400;28;20040;-78
2022/04/12 06:30:34;;;;;;;36.88;17.25;;;7.40;99.90;;;;;;5049649;28;20114;-78
2022/04/12 06:33:00;;;;;;;33.70;16.67;;;7.40;99.90;;;;;;5045946;28;20398;-80
2022/04/12 06:35:26;;;;;;;32.55;16.23;;;7.50;99.90;;;;;;5049334;28;20029;-80
2022/04/12 06:37:53;;;;;;;34.42;16.45;;;7.50;99.90;;;;;;5042939;28;20450;-79
2022/04/12 06:40:19;;;;;;;34.38;16.67;;;7.50;99.90;;;;;;5049682;28;20480;-79
2022/04/12 06:42:46;;;;;;;33.95;17.10;;;7.50;99.90;;;;;;5056574;28;20052;-79
2022/04/12 06:45:11;;;;;;;33.50;16.67;;;7.50;99.90;;;;;;5049877;28;20040;-77
2022/04/12 06:47:38;;;;;;;33.67;17.38;;;7.50;99.90;;;;;;5032240;28;20436;-77
2022/04/12 06:50:04;;;;;;;34.95;16.98;;;7.50;99.90;;;;;;5047162;28;20499;-80
2022/04/12 06:52:30;;;;;;;38.13;16.85;;;7.50;99.90;;;;;;5054340;28;20041;-78
2022/04/12 06:54:56;;;;;;;35.30;16.98;;;7.50;99.90;;;;;;5037597;28;20051;-80
2022/04/12 06:57:22;;;;;;;35.42;16.90;;;7.50;99.90;;;;;;5047078;28;20561;-78
2022/04/12 06:59:47;;;;;;;36.67;17.55;;;7.60;99.90;;;;;;5048226;28;20442;-78
2022/04/12 07:02:13;;;;;;;36.42;17.02;;;7.70;99.90;;;;;;5030572;28;20044;-76
2022/04/12 07:04:39;;;;;;;35.38;17.15;;;7.70;99.90;;;;;;5066345;28;20311;-77
2022/04/12 07:07:04;;;;;;;33.78;17.50;;;7.90;99.90;;;;;;5065493;28;20032;-80
2022/04/12 07:09:30;;;;;;;36.35;17.30;;;7.90;99.90;;;;;;5046156;28;20087;-79
2022/04/12 07:11:58;;;;;;;33.92;16.77;;;7.90;99.90;;;;;;5049432;28;20041;-76
2022/04/12 07:14:24;;;;;;;35.28;17.00;;;7.90;99.90;;;;;;5047881;28;20140;-77
2022/04/12 07:16:50;;;;;;;35.22;17.25;;;8.00;99.90;;;;;;5049525;28;20048;-78
2022/04/12 07:19:15;;;;;;;32.47;16.10;;;8.10;99.90;;;;;;5049412;28;20048;-75
2022/04/12 07:21:41;;;;;;;33.00;15.82;;;8.30;99.90;;;;;;5028945;28;20381;-78
2022/04/12 07:24:07;;;;;;;34.10;16.88;;;8.40;99.90;;;;;;5047837;28;20054;-77
2022/04/12 07:26:33;;;;;;;31.40;15.90;;;8.60;99.90;;;;;;5050335;28;20095;-81
2022/04/12 07:28:59;;;;;;;34.42;16.98;;;8.70;99.90;;;;;;5056016;28;20205;-78
2022/04/12 07:31:28;;;;;;;33.45;16.60;;;8.90;99.90;;;;;;5052631;28;20079;-74
2022/04/12 07:33:54;;;;;;;29.73;15.35;;;9.20;99.90;;;;;;5049990;28;20044;-79
2022/04/12 07:36:20;;;;;;;31.05;15.52;;;9.30;99.90;;;;;;5052736;28;20041;-76
2022/04/12 07:38:48;;;;;;;31.17;16.05;;;9.40;99.90;;;;;;5049596;28;20353;-79
2022/04/12 07:41:14;;;;;;;31.40;15.88;;;9.60;99.90;;;;;;5050299;28;20037;-78
2022/04/12 07:43:41;;;;;;;33.83;15.32;;;9.80;99.90;;;;;;5035630;28;20075;-75
2022/04/12 07:46:07;;;;;;;32.05;15.40;;;9.90;99.90;;;;;;5049394;28;20435;-75
2022/04/12 07:48:32;;;;;;;32.45;15.73;;;10.00;99.90;;;;;;5050668;28;20054;-80
2022/04/12 07:50:58;;;;;;;32.28;15.40;;;10.20;99.90;;;;;;5046186;28;20435;-78
2022/04/12 07:53:23;;;;;;;30.55;15.82;;;10.30;99.90;;;;;;5037459;28;20091;-73
2022/04/12 07:55:49;;;;;;;29.20;14.60;;;10.50;99.90;;;;;;5049594;28;20163;-75
2022/04/12 07:58:18;;;;;;;30.73;14.93;;;10.60;99.90;;;;;;5032684;28;20049;-78
2022/04/12 08:00:43;;;;;;;31.02;15.43;;;10.70;99.90;;;;;;5031446;28;20436;-75
2022/04/12 08:03:09;;;;;;;28.38;15.20;;;10.80;99.90;;;;;;5051510;28;20041;-76
2022/04/12 08:05:35;;;;;;;34.42;15.90;;;10.90;99.90;;;;;;5053094;28;20442;-80
2022/04/12 08:08:01;;;;;;;31.83;15.15;;;11.00;99.90;;;;;;5050835;28;20059;-80
2022/04/12 08:10:27;;;;;;;32.13;15.75;;;11.10;99.90;;;;;;5051878;28;20033;-76
2022/04/12 08:12:52;;;;;;;27.13;14.75;;;11.20;99.90;;;;;;5050902;28;20494;-81
2022/04/12 08:15:18;;;;;;;31.30;15.25;;;11.40;99.90;;;;;;5052315;28;20025;-80
2022/04/12 08:17:44;;;;;;;29.90;15.23;;;11.50;99.90;;;;;;5049726;28;20420;-80
2022/04/12 08:20:13;;;;;;;32.15;15.75;;;11.60;99.90;;;;;;5066009;28;20139;-79
2022/04/12 08:22:40;;;;;;;27.77;14.23;;;11.80;99.90;;;;;;5067069;28;20059;-80
2022/04/12 08:25:07;;;;;;;26.92;13.90;;;11.90;99.90;;;;;;5049548;28;20106;-76
2022/04/12 08:27:33;;;;;;;29.65;14.88;;;12.00;99.90;;;;;;5051752;28;20094;-81
2022/04/12 08:29:58;;;;;;;31.08;14.95;;;12.10;99.90;;;;;;5049837;28;20040;-77
2022/04/12 08:32:24;;;;;;;27.90;14.50;;;12.30;99.90;;;;;;5049931;28;20044;-76
2022/04/12 08:34:50;;;;;;;31.75;14.95;;;12.40;99.90;;;;;;5045833;28;20048;-80
2022/04/12 08:37:16;;;;;;;29.85;14.57;;;12.60;99.90;;;;;;5053761;28;20044;-76
2022/04/12 08:39:41;;;;;;;28.63;14.70;;;12.70;99.90;;;;;;5050064;28;20033;-78
2022/04/12 08:42:07;;;;;;;28.95;13.38;;;12.90;99.90;;;;;;5049251;28;20408;-77
2022/04/12 08:44:34;;;;;;;30.48;15.10;;;13.00;99.90;;;;;;5053658;28;20163;-81
2022/04/12 08:47:03;;;;;;;29.80;15.13;;;13.10;99.90;;;;;;5054918;28;20380;-77
2022/04/12 08:49:29;;;;;;;31.90;14.00;;;13.30;99.90;;;;;;5051254;28;20172;-77
2022/04/12 08:51:54;;;;;;;26.23;13.93;;;13.40;99.90;;;;;;5053580;28;20116;-82
2022/04/12 08:54:21;;;;;;;29.85;14.38;;;13.60;99.90;;;;;;5052110;28;20119;-76
2022/04/12 08:56:51;;;;;;;29.65;14.75;;;13.70;99.90;;;;;;5053023;28;20037;-75
2022/04/12 08:59:18;;;;;;;28.33;13.90;;;13.90;99.90;;;;;;5051288;28;20099;-79
2022/04/12 09:01:44;;;;;;;28.08;13.50;;;14.00;99.90;;;;;;5051839;28;20044;-77
2022/04/12 09:04:13;;;;;;;27.80;13.07;;;14.10;99.90;;;;;;5050989;28;20037;-75
2022/04/12 09:06:57;;;;;;;29.15;13.90;;;14.20;99.90;;;;;;5052824;28;20495;-80
2022/04/12 09:09:30;;;;;;;25.98;14.02;;;14.40;99.90;;;;;;5051812;28;20175;-80
2022/04/12 09:12:00;;;;;;;28.73;14.30;;;14.40;99.90;;;;;;5056338;28;20032;-80
2022/04/12 09:14:36;;;;;;;28.88;13.93;;;14.50;99.90;;;;;;5066248;28;20060;-77
2022/04/12 09:17:03;;;;;;;25.00;13.18;;;14.50;99.90;;;;;;5047976;28;20037;-76
2022/04/12 09:19:43;;;;;;;25.55;13.25;;;14.60;99.90;;;;;;5050902;28;20423;-79
2022/04/12 09:22:11;;;;;;;25.92;13.63;;;14.70;99.90;;;;;;5049383;28;20044;-81
2022/04/12 09:24:44;;;;;;;27.83;14.32;;;14.80;99.90;;;;;;5051392;28;20048;-80
2022/04/12 09:27:18;;;;;;;24.40;13.18;;;14.90;99.90;;;;;;5051850;28;20043;-77
2022/04/12 09:29:48;;;;;;;24.70;13.50;;;15.10;99.90;;;;;;5068850;28;20101;-83
2022/04/12 09:32:15;;;;;;;25.65;13.23;;;15.20;99.90;;;;;;5046118;28;20044;-77
2022/04/12 09:34:42;;;;;;;27.60;13.48;;;15.30;99.90;;;;;;5052691;28;20045;-76
2022/04/12 09:37:25;;;;;;;25.48;13.85;;;15.30;99.90;;;;;;5051656;28;20068;-82
2022/04/12 09:39:59;;;;;;;28.77;13.98;;;15.30;99.90;;;;;;5050628;28;20045;-80
2022/04/12 09:42:41;;;;;;;27.52;13.65;;;15.40;99.90;;;;;;5050652;28;20048;-80
2022/04/12 09:45:10;;;;;;;24.92;13.88;;;15.50;99.90;;;;;;5050904;28;20044;-75
2022/04/12 09:47:35;;;;;;;26.95;13.50;;;15.60;99.90;;;;;;5051476;28;20074;-80
2022/04/12 09:50:01;;;;;;;26.85;13.75;;;15.70;99.90;;;;;;5032106;28;20044;-78
2022/04/12 09:52:27;;;;;;;26.02;13.52;;;15.70;99.90;;;;;;5050490;28;20075;-76
2022/04/12 09:54:55;;;;;;;27.10;13.95;;;15.80;99.90;;;;;;5049458;28;20041;-78
2022/04/12 09:57:22;;;;;;;25.20;14.05;;;15.80;99.90;;;;;;5050346;28;20068;-75
2022/04/12 09:59:48;;;;;;;24.33;12.98;;;15.90;99.90;;;;;;5051024;28;20096;-80
2022/04/12 10:02:15;;;;;;;23.40;12.95;;;15.90;99.90;;;;;;5049884;28;20041;-74
2022/04/12 10:04:42;;;;;;;27.85;13.73;;;15.90;99.90;;;;;;5048666;28;20049;-78
2022/04/12 10:07:10;;;;;;;21.83;12.77;;;16.00;99.90;;;;;;5050877;28;20033;-75
2022/04/12 10:09:37;;;;;;;24.83;14.02;;;16.00;99.90;;;;;;5050472;28;20080;-78
2022/04/12 10:12:05;;;;;;;24.27;13.27;;;16.10;99.90;;;;;;5050334;28;20394;-76
2022/04/12 10:14:31;;;;;;;23.95;13.15;;;16.20;99.90;;;;;;5051051;28;20381;-81
2022/04/12 10:16:58;;;;;;;23.48;12.85;;;16.30;99.90;;;;;;5054572;28;20051;-77
2022/04/12 10:19:24;;;;;;;24.73;13.20;;;16.40;99.90;;;;;;5056032;28;20045;-82
2022/04/12 10:21:49;;;;;;;24.33;13.32;;;16.30;99.90;;;;;;5051046;28;20542;-78
2022/04/12 10:24:17;;;;;;;25.45;13.45;;;16.40;99.90;;;;;;5050415;28;20041;-74
2022/04/12 10:26:45;;;;;;;24.73;13.32;;;16.50;99.90;;;;;;5045325;28;20120;-80
2022/04/12 10:29:11;;;;;;;23.95;12.75;;;16.60;99.90;;;;;;5056004;28;20499;-78
2022/04/12 10:31:36;;;;;;;22.73;12.52;;;16.70;99.90;;;;;;5040830;28;20324;-78
2022/04/12 10:34:03;;;;;;;25.30;12.70;;;16.90;99.90;;;;;;5049928;28;20037;-76
2022/04/12 10:36:54;;;;;;;21.77;12.82;;;17.00;99.90;;;;;;5051065;28;20032;-76
2022/04/12 10:39:24;;;;;;;25.23;12.65;;;17.10;99.90;;;;;;5043506;28;20044;-81
2022/04/12 10:41:54;;;;;;;24.88;13.05;;;17.20;99.90;;;;;;5056968;28;20052;-77
2022/04/12 10:44:20;;;;;;;26.25;13.07;;;17.30;99.90;;;;;;5057225;28;20057;-79
2022/04/12 10:46:48;;;;;;;29.60;14.07;;;17.30;99.90;;;;;;5033824;28;20555;-81
2022/04/12 10:49:18;;;;;;;27.38;13.48;;;17.30;99.90;;;;;;5048982;28;20060;-80
2022/04/12 10:51:44;;;;;;;25.92;13.70;;;17.40;99.90;;;;;;5050487;28;20063;-78
2022/04/12 10:54:31;;;;;;;29.77;15.10;;;17.40;99.90;;;;;;5049791;28;20052;-76
2022/04/12 10:57:18;;;;;;;27.58;14.00;;;17.50;99.90;;;;;;5048338;28;20045;-77
2022/04/12 11:00:08;;;;;;;25.70;14.82;;;17.60;99.90;;;;;;5044499;28;20048;-75
2022/04/12 11:02:59;;;;;;;25.77;13.43;;;17.70;99.90;;;;;;5030969;28;20077;-78
2022/04/12 11:05:37;;;;;;;27.70;14.73;;;17.70;99.90;;;;;;5030124;28;20504;-77
2022/04/12 11:08:14;;;;;;;27.58;15.05;;;17.80;99.90;;;;;;5061261;28;20468;-76
2022/04/12 11:10:54;;;;;;;24.10;13.52;;;17.80;99.90;;;;;;5055780;28;20044;-81
2022/04/12 11:13:22;;;;;;;29.35;14.45;;;17.90;99.90;;;;;;5048417;28;20259;-77
2022/04/12 11:15:59;;;;;;;25.58;13.55;;;18.00;99.90;;;;;;5036664;28;20051;-82
2022/04/12 11:18:50;;;;;;;28.10;13.35;;;18.10;99.90;;;;;;5025773;28;20361;-78
2022/04/12 11:21:18;;;;;;;25.83;14.00;;;18.20;99.90;;;;;;5055256;28;20040;-80
2022/04/12 11:23:51;;;;;;;27.73;14.38;;;18.40;99.90;;;;;;5047245;28;20132;-80
2022/04/12 11:26:47;;;;;;;26.48;13.90;;;18.50;99.90;;;;;;5049228;28;20086;-76
2022/04/12 11:29:22;;;;;;;28.75;14.35;;;18.60;99.90;;;;;;5047694;28;20029;-80
2022/04/12 11:31:50;;;;;;;23.33;12.90;;;18.80;99.90;;;;;;5029868;28;20160;-71
2022/04/12 11:34:19;;;;;;;21.58;12.38;;;18.90;99.90;;;;;;5047777;28;20083;-76
2022/04/12 11:36:51;;;;;;;25.13;12.75;;;19.00;99.90;;;;;;5049882;28;20095;-80
2022/04/12 11:39:18;;;;;;;23.00;11.85;;;19.10;99.90;;;;;;5048726;28;20048;-79
2022/04/12 11:41:44;;;;;;;24.65;12.43;;;19.20;99.90;;;;;;5066361;28;20051;-80
2022/04/12 11:44:10;;;;;;;24.00;12.38;;;19.20;99.90;;;;;;5037219;28;20488;-76
2022/04/12 11:46:36;;;;;;;24.10;12.82;;;19.30;99.90;;;;;;5054897;28;20052;-80
2022/04/12 11:49:13;;;;;;;22.48;11.75;;;19.40;99.90;;;;;;5058213;28;20408;-71
2022/04/12 11:51:48;;;;;;;23.55;11.73;;;19.60;96.80;;;;;;5049322;28;20054;-76
2022/04/12 11:54:29;;;;;;;22.98;11.68;;;19.70;95.50;;;;;;5030008;28;20493;-77
2022/04/12 11:57:06;;;;;;;24.23;11.48;;;19.90;98.70;;;;;;5057459;28;20492;-78
2022/04/12 11:59:35;;;;;;;20.45;11.27;;;20.00;97.50;;;;;;5049121;28;20045;-77
2022/04/12 12:02:02;;;;;;;25.38;11.90;;;20.10;96.40;;;;;;5049227;28;20037;-69
2022/04/12 12:04:35;;;;;;;23.80;12.50;;;20.20;97.50;;;;;;5048481;28;20049;-70
2022/04/12 12:07:06;;;;;;;20.25;11.52;;;20.30;97.00;;;;;;5047844;28;20044;-70
2022/04/12 12:09:33;;;;;;;24.73;11.60;;;20.20;94.20;;;;;;5049727;28;20029;-71
2022/04/12 12:12:01;;;;;;;20.85;11.00;;;20.20;95.20;;;;;;5049444;28;20037;-71
2022/04/12 12:14:28;;;;;;;21.45;11.65;;;20.30;96.50;;;;;;5031946;28;20059;-69
2022/04/12 12:17:09;;;;;;;22.23;11.88;;;20.30;96.60;;;;;;5048967;28;20056;-69
2022/04/12 12:19:40;;;;;;;24.70;12.38;;;20.40;96.30;;;;;;5052632;28;20068;-71
2022/04/12 12:22:11;;;;;;;24.85;12.98;;;20.60;94.30;;;;;;5053374;28;20049;-68
2022/04/12 12:24:53;;;;;;;24.00;12.52;;;20.60;90.30;;;;;;5069600;28;20045;-69
2022/04/12 12:27:33;;;;;;;24.58;12.27;;;20.70;90.20;;;;;;5053631;28;20516;-70
2022/04/12 12:30:20;;;;;;;23.02;12.85;;;20.80;92.50;;;;;;5060230;28;20033;-68
2022/04/12 12:32:50;;;;;;;21.63;12.52;;;21.00;89.40;;;;;;5071751;28;20040;-66
2022/04/12 12:35:17;;;;;;;21.45;12.40;;;21.10;93.00;;;;;;5063048;28;20079;-72
2022/04/12 12:37:45;;;;;;;26.83;13.45;;;21.30;90.90;;;;;;5068354;28;20041;-68
2022/04/12 12:40:25;;;;;;;22.52;13.35;;;21.20;83.50;;;;;;5052681;28;20155;-71